sensor_id;sensor_type;location;lat;lon;timestamp;pressure;altitude;pressure_sealevel;temperature;humidity
68712;BME280;55690;51.566;19.198;2022-12-07T00:01:39;101090.72;;;2.14;100.00
68712;BME280;55690;51.566;19.198;2022-12-07T00:05:43;101089.89;;;2.12;100.00
68712;BME280;55690;51.566;19.198;2022-12-07T00:09:49;101089.22;;;2.06;100.00
68712;BME280;55690;51.566;19.198;2022-12-07T00:14:01;101085.62;;;2.07;100.00
68712;BME280;55690;51.566;19.198;2022-12-07T00:18:03;101083.23;;;1.97;100.00
68712;BME280;55690;51.566;19.198;2022-12-07T00:22:09;101090.20;;;2.03;100.00
68712;BME280;55690;51.566;19.198;2022-12-07T00:26:18;101074.23;;;2.00;100.00
68712;BME280;55690;51.566;19.198;2022-12-07T00:30:20;101082.21;;;2.02;100.00
68712;BME280;55690;51.566;19.198;2022-12-07T00:34:26;101079.88;;;1.91;100.00
68712;BME280;55690;51.566;19.198;2022-12-07T00:38:34;101072.91;;;1.85;100.00
68712;BME280;55690;51.566;19.198;2022-12-07T00:42:39;101080.86;;;1.88;100.00
68712;BME280;55690;51.566;19.198;2022-12-07T00:46:45;101080.60;;;1.96;100.00
68712;BME280;55690;51.566;19.198;2022-12-07T00:50:51;101077.11;;;1.94;100.00
68712;BME280;55690;51.566;19.198;2022-12-07T00:54:57;101068.15;;;1.95;100.00
68712;BME280;55690;51.566;19.198;2022-12-07T00:59:04;101072.47;;;1.99;100.00
68712;BME280;55690;51.566;19.198;2022-12-07T01:03:12;101065.56;;;1.92;100.00
68712;BME280;55690;51.566;19.198;2022-12-07T01:07:16;101077.11;;;1.94;100.00
68712;BME280;55690;51.566;19.198;2022-12-07T01:11:25;101076.38;;;1.89;100.00
68712;BME280;55690;51.566;19.198;2022-12-07T01:15:28;101071.95;;;1.88;100.00
68712;BME280;55690;51.566;19.198;2022-12-07T01:19:34;101078.03;;;1.93;100.00
68712;BME280;55690;51.566;19.198;2022-12-07T01:23:41;101064.63;;;1.93;100.00
68712;BME280;55690;51.566;19.198;2022-12-07T01:27:47;101056.97;;;2.09;100.00
68712;BME280;55690;51.566;19.198;2022-12-07T01:31:53;101056.20;;;2.05;100.00
68712;BME280;55690;51.566;19.198;2022-12-07T01:40:11;101049.04;;;2.06;100.00
68712;BME280;55690;51.566;19.198;2022-12-07T01:48:36;101049.96;;;2.05;100.00
68712;BME280;55690;51.566;19.198;2022-12-07T01:52:39;101041.88;;;2.06;100.00
68712;BME280;55690;51.566;19.198;2022-12-07T01:56:50;101043.63;;;2.07;100.00
68712;BME280;55690;51.566;19.198;2022-12-07T02:00:52;101047.49;;;1.98;100.00
68712;BME280;55690;51.566;19.198;2022-12-07T02:04:55;101041.00;;;2.06;100.00
68712;BME280;55690;51.566;19.198;2022-12-07T02:08:58;101033.95;;;2.03;100.00
68712;BME280;55690;51.566;19.198;2022-12-07T02:13:12;101031.06;;;2.09;100.00
68712;BME280;55690;51.566;19.198;2022-12-07T02:30:02;101026.95;;;1.99;100.00
68712;BME280;55690;51.566;19.198;2022-12-07T02:34:18;101031.06;;;2.09;100.00
68712;BME280;55690;51.566;19.198;2022-12-07T02:42:32;101027.05;;;1.96;100.00
68712;BME280;55690;51.566;19.198;2022-12-07T02:46:42;101021.58;;;1.99;100.00
68712;BME280;55690;51.566;19.198;2022-12-07T02:50:48;101018.59;;;2.08;100.00
68712;BME280;55690;51.566;19.198;2022-12-07T02:54:49;101018.09;;;1.97;100.00
68712;BME280;55690;51.566;19.198;2022-12-07T03:03:10;101013.85;;;1.90;100.00
68712;BME280;55690;51.566;19.198;2022-12-07T03:19:58;101002.27;;;1.89;100.00
68712;BME280;55690;51.566;19.198;2022-12-07T03:24:08;101007.68;;;1.88;100.00
68712;BME280;55690;51.566;19.198;2022-12-07T03:28:14;101005.00;;;1.88;100.00
68712;BME280;55690;51.566;19.198;2022-12-07T03:40:49;100991.00;;;1.80;100.00
68712;BME280;55690;51.566;19.198;2022-12-07T03:44:53;100985.13;;;1.95;100.00
68712;BME280;55690;51.566;19.198;2022-12-07T03:49:06;100982.45;;;1.95;100.00
68712;BME280;55690;51.566;19.198;2022-12-07T03:57:24;100984.81;;;1.78;100.00
68712;BME280;55690;51.566;19.198;2022-12-07T04:01:27;100984.55;;;1.85;100.00
68712;BME280;55690;51.566;19.198;2022-12-07T04:05:31;100986.52;;;1.80;100.00
68712;BME280;55690;51.566;19.198;2022-12-07T04:09:33;100985.53;;;1.83;100.00
68712;BME280;55690;51.566;19.198;2022-12-07T04:13:36;100975.39;;;1.92;100.00
68712;BME280;55690;51.566;19.198;2022-12-07T04:17:49;100978.38;;;1.83;100.00
68712;BME280;55690;51.566;19.198;2022-12-07T04:21:51;100976.15;;;1.71;100.00
68712;BME280;55690;51.566;19.198;2022-12-07T04:25:55;100975.38;;;1.68;100.00
68712;BME280;55690;51.566;19.198;2022-12-07T04:29:57;100978.05;;;1.68;100.00
68712;BME280;55690;51.566;19.198;2022-12-07T04:33:58;100966.62;;;1.62;100.00
68712;BME280;55690;51.566;19.198;2022-12-07T04:38:00;100973.52;;;1.70;100.00
68712;BME280;55690;51.566;19.198;2022-12-07T04:42:02;100970.84;;;1.70;100.00
68712;BME280;55690;51.566;19.198;2022-12-07T04:46:04;100966.00;;;1.54;100.00
68712;BME280;55690;51.566;19.198;2022-12-07T04:50:09;100974.95;;;1.53;100.00
68712;BME280;55690;51.566;19.198;2022-12-07T04:54:11;100977.22;;;1.65;100.00
68712;BME280;55690;51.566;19.198;2022-12-07T04:58:14;100965.65;;;1.65;100.00
68712;BME280;55690;51.566;19.198;2022-12-07T05:02:16;100972.95;;;1.60;100.00
68712;BME280;55690;51.566;19.198;2022-12-07T05:06:17;100963.13;;;1.60;100.00
68712;BME280;55690;51.566;19.198;2022-12-07T05:10:19;100959.56;;;1.60;100.00
68712;BME280;55690;51.566;19.198;2022-12-07T05:14:21;100965.59;;;1.66;100.00
68712;BME280;55690;51.566;19.198;2022-12-07T05:18:24;100960.29;;;1.65;100.00
68712;BME280;55690;51.566;19.198;2022-12-07T05:22:25;100957.41;;;1.71;100.00
68712;BME280;55690;51.566;19.198;2022-12-07T05:26:30;100968.22;;;1.68;100.00
68712;BME280;55690;51.566;19.198;2022-12-07T05:30:33;100964.67;;;1.68;100.00
68712;BME280;55690;51.566;19.198;2022-12-07T05:34:34;100961.94;;;1.69;100.00
68712;BME280;55690;51.566;19.198;2022-12-07T05:38:36;100972.91;;;1.61;100.00
68712;BME280;55690;51.566;19.198;2022-12-07T05:42:38;100970.33;;;1.58;100.00
68712;BME280;55690;51.566;19.198;2022-12-07T05:46:40;100969.24;;;1.64;100.00
68712;BME280;55690;51.566;19.198;2022-12-07T05:50:42;100978.40;;;1.57;100.00
68712;BME280;55690;51.566;19.198;2022-12-07T05:54:44;100987.10;;;1.63;100.00
68712;BME280;55690;51.566;19.198;2022-12-07T05:58:46;100981.07;;;1.57;100.00
68712;BME280;55690;51.566;19.198;2022-12-07T06:03:01;100980.84;;;1.64;100.00
68712;BME280;55690;51.566;19.198;2022-12-07T06:07:05;100985.36;;;1.62;100.00
68712;BME280;55690;51.566;19.198;2022-12-07T06:11:09;100993.29;;;1.65;100.00
68712;BME280;55690;51.566;19.198;2022-12-07T06:15:23;100979.74;;;1.70;100.00
68712;BME280;55690;51.566;19.198;2022-12-07T06:19:28;100980.77;;;1.66;100.00
68712;BME280;55690;51.566;19.198;2022-12-07T06:23:33;100989.69;;;1.66;100.00
68712;BME280;55690;51.566;19.198;2022-12-07T06:27:36;100986.63;;;1.77;100.00
68712;BME280;55690;51.566;19.198;2022-12-07T06:31:42;100989.24;;;1.79;100.00
68712;BME280;55690;51.566;19.198;2022-12-07T06:35:45;100988.47;;;1.75;100.00
68712;BME280;55690;51.566;19.198;2022-12-07T06:39:49;100991.77;;;1.83;100.00
68712;BME280;55690;51.566;19.198;2022-12-07T06:43:52;100988.16;;;1.84;100.00
68712;BME280;55690;51.566;19.198;2022-12-07T06:47:56;100986.26;;;1.88;100.00
68712;BME280;55690;51.566;19.198;2022-12-07T06:52:03;100991.87;;;1.80;100.00
68712;BME280;55690;51.566;19.198;2022-12-07T06:56:10;100990.63;;;1.90;100.00
68712;BME280;55690;51.566;19.198;2022-12-07T07:00:17;100993.41;;;1.87;100.00
68712;BME280;55690;51.566;19.198;2022-12-07T07:04:23;100986.41;;;1.83;100.00
68712;BME280;55690;51.566;19.198;2022-12-07T07:08:27;100984.51;;;1.87;100.00
68712;BME280;55690;51.566;19.198;2022-12-07T07:12:31;100994.09;;;1.94;100.00
68712;BME280;55690;51.566;19.198;2022-12-07T07:16:37;100988.63;;;1.97;100.00
68712;BME280;55690;51.566;19.198;2022-12-07T07:20:43;100993.98;;;1.97;100.00
68712;BME280;55690;51.566;19.198;2022-12-07T07:24:47;101000.06;;;2.02;100.00
68712;BME280;55690;51.566;19.198;2022-12-07T07:28:51;100994.09;;;1.94;100.00
68712;BME280;55690;51.566;19.198;2022-12-07T07:32:58;100990.69;;;1.89;100.00
68712;BME280;55690;51.566;19.198;2022-12-07T07:37:03;100991.25;;;1.98;100.00
68712;BME280;55690;51.566;19.198;2022-12-07T07:41:09;100999.13;;;2.03;100.00
68712;BME280;55690;51.566;19.198;2022-12-07T07:45:16;100999.13;;;2.03;100.00
68712;BME280;55690;51.566;19.198;2022-12-07T07:49:23;100986.88;;;1.96;100.00
68712;BME280;55690;51.566;19.198;2022-12-07T07:53:28;101013.55;;;1.99;100.00
68712;BME280;55690;51.566;19.198;2022-12-07T07:57:35;101013.66;;;1.96;100.00
68712;BME280;55690;51.566;19.198;2022-12-07T08:01:41;101015.51;;;1.94;100.00
68712;BME280;55690;51.566;19.198;2022-12-07T08:05:48;101013.60;;;1.97;100.00
68712;BME280;55690;51.566;19.198;2022-12-07T08:09:55;101012.37;;;1.81;100.00
68712;BME280;55690;51.566;19.198;2022-12-07T08:13:59;101019.02;;;1.96;100.00
68712;BME280;55690;51.566;19.198;2022-12-07T08:18:06;101016.49;;;1.91;100.00
68712;BME280;55690;51.566;19.198;2022-12-07T08:22:13;101010.14;;;1.94;100.00
68712;BME280;55690;51.566;19.198;2022-12-07T08:26:17;101013.85;;;1.90;100.00
68712;BME280;55690;51.566;19.198;2022-12-07T08:30:25;101016.38;;;1.94;100.00
68712;BME280;55690;51.566;19.198;2022-12-07T08:34:30;101016.17;;;2.00;100.00
68712;BME280;55690;51.566;19.198;2022-12-07T08:38:37;101015.92;;;2.08;100.00
68712;BME280;55690;51.566;19.198;2022-12-07T08:42:44;101015.25;;;2.02;100.00
68712;BME280;55690;51.566;19.198;2022-12-07T08:46:58;101017.56;;;2.12;100.00
68712;BME280;55690;51.566;19.198;2022-12-07T08:51:03;101022.20;;;2.07;100.00
68712;BME280;55690;51.566;19.198;2022-12-07T08:55:10;101015.25;;;2.02;100.00
68712;BME280;55690;51.566;19.198;2022-12-07T08:59:18;101016.38;;;1.94;100.00
68712;BME280;55690;51.566;19.198;2022-12-07T09:03:20;101017.26;;;1.95;100.00
68712;BME280;55690;51.566;19.198;2022-12-07T09:07:23;101008.86;;;2.06;100.00
68712;BME280;55690;51.566;19.198;2022-12-07T09:11:25;101012.41;;;2.06;100.00
68712;BME280;55690;51.566;19.198;2022-12-07T09:15:34;100998.88;;;1.84;100.00
68712;BME280;55690;51.566;19.198;2022-12-07T09:19:40;100990.59;;;1.92;100.00
68712;BME280;55690;51.566;19.198;2022-12-07T09:23:45;100993.32;;;1.90;100.00
68712;BME280;55690;51.566;19.198;2022-12-07T09:27:56;100988.11;;;1.86;100.00
68712;BME280;55690;51.566;19.198;2022-12-07T09:32:00;100985.93;;;1.72;100.00
68712;BME280;55690;51.566;19.198;2022-12-07T09:36:04;100983.12;;;1.75;100.00
68712;BME280;55690;51.566;19.198;2022-12-07T09:40:10;100981.10;;;1.82;100.00
68712;BME280;55690;51.566;19.198;2022-12-07T09:44:23;100980.63;;;1.71;100.00
68712;BME280;55690;51.566;19.198;2022-12-07T09:48:31;100983.12;;;1.75;100.00
68712;BME280;55690;51.566;19.198;2022-12-07T09:52:34;100965.81;;;1.85;100.00
68712;BME280;55690;51.566;19.198;2022-12-07T09:56:40;100960.86;;;1.99;100.00
68712;BME280;55690;51.566;19.198;2022-12-07T10:00:48;100960.86;;;1.99;100.00
68712;BME280;55690;51.566;19.198;2022-12-07T10:04:57;100951.69;;;2.07;100.00
68712;BME280;55690;51.566;19.198;2022-12-07T10:09:07;100957.37;;;1.97;100.00
68712;BME280;55690;51.566;19.198;2022-12-07T10:13:15;100946.00;;;2.16;100.00
68712;BME280;55690;51.566;19.198;2022-12-07T10:21:36;100946.78;;;2.18;100.00
68712;BME280;55690;51.566;19.198;2022-12-07T10:25:40;100934.63;;;2.09;100.00
68712;BME280;55690;51.566;19.198;2022-12-07T10:29:52;100944.47;;;2.09;100.00
68712;BME280;55690;51.566;19.198;2022-12-07T10:33:57;100935.40;;;2.13;100.00
68712;BME280;55690;51.566;19.198;2022-12-07T10:38:00;100934.63;;;2.09;100.00
68712;BME280;55690;51.566;19.198;2022-12-07T10:42:05;100939.49;;;1.98;100.00
68712;BME280;55690;51.566;19.198;2022-12-07T11:11:46;100920.69;;;1.99;100.00
68712;BME280;55690;51.566;19.198;2022-12-07T11:20:23;100906.20;;;2.05;100.00
68712;BME280;55690;51.566;19.198;2022-12-07T11:33:13;100890.25;;;2.25;100.00
68712;BME280;55690;51.566;19.198;2022-12-07T11:37:21;100890.08;;;2.07;100.00
68712;BME280;55690;51.566;19.198;2022-12-07T11:41:35;100862.04;;;1.92;100.00
68712;BME280;55690;51.566;19.198;2022-12-07T11:45:52;100884.55;;;2.11;100.00
68712;BME280;55690;51.566;19.198;2022-12-07T11:54:24;100880.07;;;2.12;100.00
68712;BME280;55690;51.566;19.198;2022-12-07T12:02:58;100863.94;;;2.13;100.00
68712;BME280;55690;51.566;19.198;2022-12-07T12:07:05;100861.82;;;2.21;100.00
68712;BME280;55690;51.566;19.198;2022-12-07T12:11:19;100855.65;;;2.19;100.00
68712;BME280;55690;51.566;19.198;2022-12-07T12:15:38;100853.67;;;2.24;100.00
68712;BME280;55690;51.566;19.198;2022-12-07T12:24:09;100853.29;;;2.12;100.00
68712;BME280;55690;51.566;19.198;2022-12-07T12:32:39;100845.86;;;2.18;100.00
68712;BME280;55690;51.566;19.198;2022-12-07T12:36:48;100851.28;;;2.17;100.00
68712;BME280;55690;51.566;19.198;2022-12-07T12:40:56;100837.33;;;2.09;100.00
68712;BME280;55690;51.566;19.198;2022-12-07T12:45:18;100833.41;;;1.94;100.00
68712;BME280;55690;51.566;19.198;2022-12-07T12:49:31;100829.73;;;1.73;100.00
68712;BME280;55690;51.566;19.198;2022-12-07T12:53:34;100832.42;;;1.96;100.00
68712;BME280;55690;51.566;19.198;2022-12-07T12:57:39;100824.13;;;1.79;100.00
68712;BME280;55690;51.566;19.198;2022-12-07T13:01:47;100825.71;;;1.85;100.00
68712;BME280;55690;51.566;19.198;2022-12-07T13:18:37;100828.71;;;1.76;100.00
68712;BME280;55690;51.566;19.198;2022-12-07T13:22:44;100835.41;;;1.64;100.00
68712;BME280;55690;51.566;19.198;2022-12-07T13:26:56;100835.25;;;1.69;100.00
68712;BME280;55690;51.566;19.198;2022-12-07T13:31:04;100835.25;;;1.69;100.00
68712;BME280;55690;51.566;19.198;2022-12-07T13:35:35;100834.27;;;1.71;100.00
68712;BME280;55690;51.566;19.198;2022-12-07T13:39:29;100840.95;;;1.83;100.00
68712;BME280;55690;51.566;19.198;2022-12-07T13:47:54;100837.22;;;1.63;100.00
68712;BME280;55690;51.566;19.198;2022-12-07T13:56:18;100842.24;;;1.73;100.00
68712;BME280;55690;51.566;19.198;2022-12-07T14:00:26;100845.80;;;1.73;100.00
68712;BME280;55690;51.566;19.198;2022-12-07T14:04:36;100851.77;;;1.80;100.00
68712;BME280;55690;51.566;19.198;2022-12-07T14:08:43;100857.02;;;1.83;100.00
68712;BME280;55690;51.566;19.198;2022-12-07T14:12:50;100853.52;;;1.81;100.00
68712;BME280;55690;51.566;19.198;2022-12-07T14:17:08;100845.80;;;1.73;100.00
68712;BME280;55690;51.566;19.198;2022-12-07T14:21:16;100842.41;;;1.68;100.00
68712;BME280;55690;51.566;19.198;2022-12-07T14:25:27;100849.16;;;1.78;100.00
68712;BME280;55690;51.566;19.198;2022-12-07T14:29:34;100842.92;;;1.78;100.00
68712;BME280;55690;51.566;19.198;2022-12-07T14:33:44;100848.59;;;1.70;100.00
68712;BME280;55690;51.566;19.198;2022-12-07T14:37:51;100840.25;;;1.78;100.00
68712;BME280;55690;51.566;19.198;2022-12-07T14:41:54;100840.45;;;1.73;100.00
68712;BME280;55690;51.566;19.198;2022-12-07T14:45:58;100832.79;;;1.62;100.00
68712;BME280;55690;51.566;19.198;2022-12-07T14:50:05;100838.10;;;1.64;100.00
68712;BME280;55690;51.566;19.198;2022-12-07T14:54:14;100836.40;;;1.61;100.00
68712;BME280;55690;51.566;19.198;2022-12-07T14:58:19;100828.48;;;1.58;100.00
68712;BME280;55690;51.566;19.198;2022-12-07T15:02:26;100825.58;;;1.64;100.00
68712;BME280;55690;51.566;19.198;2022-12-07T15:06:32;100830.28;;;1.58;100.00
68712;BME280;55690;51.566;19.198;2022-12-07T15:10:40;100832.19;;;1.54;100.00
68712;BME280;55690;51.566;19.198;2022-12-07T15:14:47;100831.26;;;1.55;100.00
68712;BME280;55690;51.566;19.198;2022-12-07T15:18:54;100833.11;;;1.53;100.00
68712;BME280;55690;51.566;19.198;2022-12-07T15:23:02;100833.99;;;1.54;100.00
68712;BME280;55690;51.566;19.198;2022-12-07T15:27:06;100831.85;;;1.39;100.00
68712;BME280;55690;51.566;19.198;2022-12-07T15:31:15;100839.66;;;1.45;100.00
68712;BME280;55690;51.566;19.198;2022-12-07T15:35:19;100846.91;;;1.41;100.00
68712;BME280;55690;51.566;19.198;2022-12-07T15:39:22;100844.95;;;1.46;100.00
68712;BME280;55690;51.566;19.198;2022-12-07T15:43:24;100835.73;;;1.55;100.00
68712;BME280;55690;51.566;19.198;2022-12-07T15:47:42;100832.50;;;1.45;100.00
68712;BME280;55690;51.566;19.198;2022-12-07T15:51:45;100838.67;;;1.47;100.00
68712;BME280;55690;51.566;19.198;2022-12-07T15:55:48;100835.18;;;1.45;100.00
68712;BME280;55690;51.566;19.198;2022-12-07T15:59:50;100834.96;;;1.51;100.00
68712;BME280;55690;51.566;19.198;2022-12-07T16:03:52;100839.45;;;1.51;100.00
68712;BME280;55690;51.566;19.198;2022-12-07T16:07:54;100838.36;;;1.56;100.00
68712;BME280;55690;51.566;19.198;2022-12-07T16:11:57;100831.91;;;1.62;100.00
68712;BME280;55690;51.566;19.198;2022-12-07T16:16:06;100831.91;;;1.62;100.00
68712;BME280;55690;51.566;19.198;2022-12-07T16:20:10;100840.98;;;1.58;100.00
68712;BME280;55690;51.566;19.198;2022-12-07T16:24:12;100840.98;;;1.58;100.00
68712;BME280;55690;51.566;19.198;2022-12-07T16:28:17;100838.20;;;1.61;100.00
68712;BME280;55690;51.566;19.198;2022-12-07T16:32:19;100851.05;;;1.75;100.00
68712;BME280;55690;51.566;19.198;2022-12-07T16:36:22;100844.16;;;1.69;100.00
68712;BME280;55690;51.566;19.198;2022-12-07T16:40:28;100853.22;;;1.65;100.00
68712;BME280;55690;51.566;19.198;2022-12-07T16:44:32;100847.41;;;1.52;100.00
68712;BME280;55690;51.566;19.198;2022-12-07T16:48:39;100852.27;;;1.41;100.00
68712;BME280;55690;51.566;19.198;2022-12-07T16:52:42;100868.48;;;1.37;100.00
68712;BME280;55690;51.566;19.198;2022-12-07T16:56:44;100868.48;;;1.37;100.00
68712;BME280;55690;51.566;19.198;2022-12-07T17:00:47;100866.83;;;1.32;100.00
68712;BME280;55690;51.566;19.198;2022-12-07T17:04:50;100867.70;;;1.33;100.00
68712;BME280;55690;51.566;19.198;2022-12-07T17:08:53;100867.60;;;1.36;100.00
68712;BME280;55690;51.566;19.198;2022-12-07T17:12:56;100870.91;;;1.18;100.00
68712;BME280;55690;51.566;19.198;2022-12-07T17:16:59;100873.19;;;1.30;100.00
68712;BME280;55690;51.566;19.198;2022-12-07T17:21:07;100875.24;;;1.22;100.00
68712;BME280;55690;51.566;19.198;2022-12-07T17:25:11;100885.79;;;1.26;100.00
68712;BME280;55690;51.566;19.198;2022-12-07T17:29:16;100885.51;;;1.34;100.00
68712;BME280;55690;51.566;19.198;2022-12-07T17:33:19;100895.29;;;1.35;100.00
68712;BME280;55690;51.566;19.198;2022-12-07T17:37:23;100897.18;;;1.31;100.00
68712;BME280;55690;51.566;19.198;2022-12-07T17:41:27;100887.64;;;1.24;100.00
68712;BME280;55690;51.566;19.198;2022-12-07T17:45:42;100896.48;;;1.26;100.00
68712;BME280;55690;51.566;19.198;2022-12-07T17:49:46;100893.34;;;1.14;100.00
68712;BME280;55690;51.566;19.198;2022-12-07T17:53:50;100910.98;;;1.19;100.00
68712;BME280;55690;51.566;19.198;2022-12-07T17:57:53;100911.48;;;1.04;100.00
68712;BME280;55690;51.566;19.198;2022-12-07T18:01:55;100912.98;;;1.13;100.00
68712;BME280;55690;51.566;19.198;2022-12-07T18:05:59;100920.38;;;1.05;100.00
68712;BME280;55690;51.566;19.198;2022-12-07T18:10:01;100919.41;;;1.07;100.00
68712;BME280;55690;51.566;19.198;2022-12-07T18:14:07;100928.30;;;1.08;100.00
68712;BME280;55690;51.566;19.198;2022-12-07T18:18:09;100923.78;;;1.10;100.00
68712;BME280;55690;51.566;19.198;2022-12-07T18:22:11;100935.30;;;1.12;100.00
68712;BME280;55690;51.566;19.198;2022-12-07T18:26:14;100921.15;;;1.08;100.00
68712;BME280;55690;51.566;19.198;2022-12-07T18:30:16;100926.55;;;1.07;100.00
68712;BME280;55690;51.566;19.198;2022-12-07T18:34:18;100924.07;;;1.00;100.00
68712;BME280;55690;51.566;19.198;2022-12-07T18:38:20;100925.09;;;0.96;100.00
68712;BME280;55690;51.566;19.198;2022-12-07T18:42:23;100925.96;;;0.97;100.00
68712;BME280;55690;51.566;19.198;2022-12-07T18:46:26;100919.88;;;0.92;100.00
68712;BME280;55690;51.566;19.198;2022-12-07T18:50:28;100921.02;;;0.85;100.00
68712;BME280;55690;51.566;19.198;2022-12-07T18:54:31;100927.03;;;0.91;100.00
68712;BME280;55690;51.566;19.198;2022-12-07T18:58:34;100925.49;;;0.84;100.00
68712;BME280;55690;51.566;19.198;2022-12-07T19:02:38;100930.20;;;0.76;100.00
68712;BME280;55690;51.566;19.198;2022-12-07T19:06:45;100938.40;;;0.70;100.00
68712;BME280;55690;51.566;19.198;2022-12-07T19:10:52;100945.32;;;0.77;100.00
68712;BME280;55690;51.566;19.198;2022-12-07T19:15:04;100942.82;;;0.71;100.00
68712;BME280;55690;51.566;19.198;2022-12-07T19:19:11;100944.66;;;0.69;100.00
68712;BME280;55690;51.566;19.198;2022-12-07T19:23:19;100945.95;;;0.56;100.00
68712;BME280;55690;51.566;19.198;2022-12-07T19:27:28;100943.19;;;0.59;100.00
68712;BME280;55690;51.566;19.198;2022-12-07T19:31:34;100954.01;;;0.54;100.00
68712;BME280;55690;51.566;19.198;2022-12-07T19:35:41;100951.42;;;0.51;100.00
68712;BME280;55690;51.566;19.198;2022-12-07T19:39:48;100948.80;;;0.50;100.00
68712;BME280;55690;51.566;19.198;2022-12-07T19:43:56;100954.14;;;0.50;100.00
68712;BME280;55690;51.566;19.198;2022-12-07T19:48:01;100951.73;;;0.42;100.00
68712;BME280;55690;51.566;19.198;2022-12-07T19:52:06;100956.36;;;0.36;100.00
68712;BME280;55690;51.566;19.198;2022-12-07T19:56:14;100963.28;;;0.43;100.00
68712;BME280;55690;51.566;19.198;2022-12-07T20:00:18;100964.29;;;0.39;100.00
68712;BME280;55690;51.566;19.198;2022-12-07T20:04:23;100961.79;;;0.32;100.00
68712;BME280;55690;51.566;19.198;2022-12-07T20:08:26;100954.39;;;0.42;100.00
68712;BME280;55690;51.566;19.198;2022-12-07T20:12:29;100954.39;;;0.42;100.00
68712;BME280;55690;51.566;19.198;2022-12-07T20:16:43;100954.14;;;0.50;100.00
68712;BME280;55690;51.566;19.198;2022-12-07T20:20:54;100951.60;;;0.45;100.00
68712;BME280;55690;51.566;19.198;2022-12-07T20:25:01;100957.64;;;0.52;100.00
68712;BME280;55690;51.566;19.198;2022-12-07T20:29:08;100954.84;;;0.56;100.00
68712;BME280;55690;51.566;19.198;2022-12-07T20:33:11;100953.00;;;0.58;100.00
68712;BME280;55690;51.566;19.198;2022-12-07T20:37:16;100944.46;;;0.46;100.00
68712;BME280;55690;51.566;19.198;2022-12-07T20:41:21;100948.63;;;0.56;100.00
68712;BME280;55690;51.566;19.198;2022-12-07T20:45:44;100945.91;;;0.57;100.00
68712;BME280;55690;51.566;19.198;2022-12-07T20:49:51;100951.51;;;0.48;100.00
68712;BME280;55690;51.566;19.198;2022-12-07T20:53:59;100945.25;;;0.49;100.00
68712;BME280;55690;51.566;19.198;2022-12-07T20:58:06;100941.53;;;0.55;100.00
68712;BME280;55690;51.566;19.198;2022-12-07T21:02:12;100943.27;;;0.56;100.00
68712;BME280;55690;51.566;19.198;2022-12-07T21:06:19;100941.43;;;0.58;100.00
68712;BME280;55690;51.566;19.198;2022-12-07T21:10:26;100943.45;;;0.50;100.00
68712;BME280;55690;51.566;19.198;2022-12-07T21:14:33;100949.67;;;0.50;100.00
68712;BME280;55690;51.566;19.198;2022-12-07T21:18:39;100957.73;;;0.49;100.00
68712;BME280;55690;51.566;19.198;2022-12-07T21:22:42;100952.22;;;0.55;100.00
68712;BME280;55690;51.566;19.198;2022-12-07T21:26:47;100945.38;;;0.45;100.00
68712;BME280;55690;51.566;19.198;2022-12-07T21:30:50;100949.18;;;0.38;100.00
68712;BME280;55690;51.566;19.198;2022-12-07T21:34:56;100948.84;;;0.48;100.00
68712;BME280;55690;51.566;19.198;2022-12-07T21:42:12;100951.51;;;0.48;100.00
68712;BME280;55690;51.566;19.198;2022-12-07T21:46:21;100958.43;;;0.55;100.00
68712;BME280;55690;51.566;19.198;2022-12-07T21:50:25;100959.45;;;0.51;100.00
68712;BME280;55690;51.566;19.198;2022-12-07T21:54:32;100952.08;;;0.59;100.00
68712;BME280;55690;51.566;19.198;2022-12-07T21:58:37;100959.27;;;0.57;100.00
68712;BME280;55690;51.566;19.198;2022-12-07T22:02:43;100968.06;;;0.61;100.00
68712;BME280;55690;51.566;19.198;2022-12-07T22:06:51;100960.98;;;0.60;100.00
68712;BME280;55690;51.566;19.198;2022-12-07T22:11:00;100976.21;;;0.56;100.00
68712;BME280;55690;51.566;19.198;2022-12-07T22:15:02;100979.63;;;0.61;100.00
68712;BME280;55690;51.566;19.198;2022-12-07T22:19:08;100981.29;;;0.65;100.00
68712;BME280;55690;51.566;19.198;2022-12-07T22:23:14;100982.26;;;0.63;100.00
68712;BME280;55690;51.566;19.198;2022-12-07T22:27:20;100986.68;;;0.64;100.00
68712;BME280;55690;51.566;19.198;2022-12-07T22:31:27;100983.48;;;0.51;100.00
68712;BME280;55690;51.566;19.198;2022-12-07T22:35:33;100987.08;;;0.50;100.00
68712;BME280;55690;51.566;19.198;2022-12-07T22:39:39;100985.20;;;0.54;100.00
68712;BME280;55690;51.566;19.198;2022-12-07T22:43:45;100990.80;;;0.45;100.00
68712;BME280;55690;51.566;19.198;2022-12-07T22:47:51;100990.71;;;0.48;100.00
68712;BME280;55690;51.566;19.198;2022-12-07T22:51:58;100992.67;;;0.43;100.00
68712;BME280;55690;51.566;19.198;2022-12-07T22:56:04;101001.48;;;0.45;100.00
68712;BME280;55690;51.566;19.198;2022-12-07T23:00:10;100994.59;;;0.38;100.00
68712;BME280;55690;51.566;19.198;2022-12-07T23:04:16;101003.40;;;0.41;100.00
68712;BME280;55690;51.566;19.198;2022-12-07T23:08:22;100998.81;;;0.45;100.00
68712;BME280;55690;51.566;19.198;2022-12-07T23:12:28;101003.27;;;0.44;100.00
68712;BME280;55690;51.566;19.198;2022-12-07T23:16:43;100996.43;;;0.36;100.00
68712;BME280;55690;51.566;19.198;2022-12-07T23:20:44;100998.05;;;0.41;100.00
68712;BME280;55690;51.566;19.198;2022-12-07T23:24:47;100997.68;;;0.53;100.00
68712;BME280;55690;51.566;19.198;2022-12-07T23:28:54;100997.68;;;0.53;100.00